sensor_id;sensor_type;location;lat;lon;timestamp;P1;durP1;ratioP1;P2;durP2;ratioP2
33148;SDS011;19506;51.040;3.856;2023-02-21T00:01:14;8.52;;;4.93;;
33148;SDS011;19506;51.040;3.856;2023-02-21T00:03:59;8.75;;;4.72;;
33148;SDS011;19506;51.040;3.856;2023-02-21T00:06:43;8.25;;;4.80;;
33148;SDS011;19506;51.040;3.856;2023-02-21T00:09:28;11.63;;;4.80;;
33148;SDS011;19506;51.040;3.856;2023-02-21T00:12:12;9.70;;;4.70;;
33148;SDS011;19506;51.040;3.856;2023-02-21T00:14:56;7.22;;;4.47;;
33148;SDS011;19506;51.040;3.856;2023-02-21T00:17:41;8.63;;;5.20;;
33148;SDS011;19506;51.040;3.856;2023-02-21T00:20:25;6.78;;;4.70;;
33148;SDS011;19506;51.040;3.856;2023-02-21T00:23:09;7.82;;;4.35;;
33148;SDS011;19506;51.040;3.856;2023-02-21T00:25:53;7.03;;;4.60;;
33148;SDS011;19506;51.040;3.856;2023-02-21T00:28:37;6.05;;;4.18;;
33148;SDS011;19506;51.040;3.856;2023-02-21T00:31:21;8.20;;;4.28;;
33148;SDS011;19506;51.040;3.856;2023-02-21T00:34:05;8.55;;;4.68;;
33148;SDS011;19506;51.040;3.856;2023-02-21T00:36:51;9.30;;;5.13;;
33148;SDS011;19506;51.040;3.856;2023-02-21T00:39:36;7.50;;;4.70;;
33148;SDS011;19506;51.040;3.856;2023-02-21T00:42:20;7.57;;;4.70;;
33148;SDS011;19506;51.040;3.856;2023-02-21T00:45:04;9.10;;;4.68;;
33148;SDS011;19506;51.040;3.856;2023-02-21T00:47:48;8.23;;;4.85;;
33148;SDS011;19506;51.040;3.856;2023-02-21T00:50:32;7.68;;;4.40;;
33148;SDS011;19506;51.040;3.856;2023-02-21T00:53:16;6.45;;;4.20;;
33148;SDS011;19506;51.040;3.856;2023-02-21T00:56:00;6.07;;;4.13;;
33148;SDS011;19506;51.040;3.856;2023-02-21T00:58:44;9.68;;;4.07;;
33148;SDS011;19506;51.040;3.856;2023-02-21T01:01:28;6.88;;;4.30;;
33148;SDS011;19506;51.040;3.856;2023-02-21T01:04:13;9.75;;;5.20;;
33148;SDS011;19506;51.040;3.856;2023-02-21T01:06:57;6.28;;;4.10;;
33148;SDS011;19506;51.040;3.856;2023-02-21T01:09:41;5.03;;;3.70;;
33148;SDS011;19506;51.040;3.856;2023-02-21T01:12:25;8.50;;;4.07;;
33148;SDS011;19506;51.040;3.856;2023-02-21T01:15:09;7.07;;;4.32;;
33148;SDS011;19506;51.040;3.856;2023-02-21T01:17:53;4.70;;;3.80;;
33148;SDS011;19506;51.040;3.856;2023-02-21T01:20:38;7.22;;;4.35;;
33148;SDS011;19506;51.040;3.856;2023-02-21T01:23:22;6.82;;;4.32;;
33148;SDS011;19506;51.040;3.856;2023-02-21T01:26:07;8.05;;;4.88;;
33148;SDS011;19506;51.040;3.856;2023-02-21T01:28:52;7.20;;;4.23;;
33148;SDS011;19506;51.040;3.856;2023-02-21T01:31:36;6.88;;;3.65;;
33148;SDS011;19506;51.040;3.856;2023-02-21T01:34:20;6.22;;;4.00;;
33148;SDS011;19506;51.040;3.856;2023-02-21T01:37:04;5.82;;;4.15;;
33148;SDS011;19506;51.040;3.856;2023-02-21T01:39:48;8.25;;;4.30;;
33148;SDS011;19506;51.040;3.856;2023-02-21T01:42:33;7.07;;;4.68;;
33148;SDS011;19506;51.040;3.856;2023-02-21T01:45:37;8.18;;;3.85;;
33148;SDS011;19506;51.040;3.856;2023-02-21T01:48:34;5.38;;;4.22;;
33148;SDS011;19506;51.040;3.856;2023-02-21T01:51:20;5.72;;;3.70;;
33148;SDS011;19506;51.040;3.856;2023-02-21T01:54:09;4.70;;;3.42;;
33148;SDS011;19506;51.040;3.856;2023-02-21T01:56:54;5.78;;;4.10;;
33148;SDS011;19506;51.040;3.856;2023-02-21T01:59:42;6.28;;;4.03;;
33148;SDS011;19506;51.040;3.856;2023-02-21T02:02:28;5.80;;;4.13;;
33148;SDS011;19506;51.040;3.856;2023-02-21T02:05:19;5.40;;;3.78;;
33148;SDS011;19506;51.040;3.856;2023-02-21T02:08:04;6.40;;;3.67;;
33148;SDS011;19506;51.040;3.856;2023-02-21T02:10:50;6.13;;;3.75;;
33148;SDS011;19506;51.040;3.856;2023-02-21T02:21:54;5.25;;;3.78;;
33148;SDS011;19506;51.040;3.856;2023-02-21T02:44:51;5.10;;;3.80;;
33148;SDS011;19506;51.040;3.856;2023-02-21T02:47:22;5.65;;;3.47;;
33148;SDS011;19506;51.040;3.856;2023-02-21T02:49:53;7.35;;;3.75;;
33148;SDS011;19506;51.040;3.856;2023-02-21T02:52:19;4.70;;;3.55;;
33148;SDS011;19506;51.040;3.856;2023-02-21T02:57:22;6.53;;;3.67;;
33148;SDS011;19506;51.040;3.856;2023-02-21T02:59:48;7.20;;;3.67;;
33148;SDS011;19506;51.040;3.856;2023-02-21T03:05:18;6.68;;;3.72;;
33148;SDS011;19506;51.040;3.856;2023-02-21T03:11:11;6.10;;;3.47;;
33148;SDS011;19506;51.040;3.856;2023-02-21T03:13:46;3.53;;;2.80;;
33148;SDS011;19506;51.040;3.856;2023-02-21T03:18:52;8.57;;;3.53;;
33148;SDS011;19506;51.040;3.856;2023-02-21T03:21:27;4.63;;;3.38;;
33148;SDS011;19506;51.040;3.856;2023-02-21T03:23:57;6.25;;;3.92;;
33148;SDS011;19506;51.040;3.856;2023-02-21T03:26:26;5.35;;;3.35;;
33148;SDS011;19506;51.040;3.856;2023-02-21T03:28:54;3.60;;;3.08;;
33148;SDS011;19506;51.040;3.856;2023-02-21T03:31:22;4.35;;;2.88;;
33148;SDS011;19506;51.040;3.856;2023-02-21T03:33:52;4.55;;;3.20;;
33148;SDS011;19506;51.040;3.856;2023-02-21T03:38:44;5.50;;;3.20;;
33148;SDS011;19506;51.040;3.856;2023-02-21T03:43:36;5.57;;;3.08;;
33148;SDS011;19506;51.040;3.856;2023-02-21T03:46:01;5.38;;;3.15;;
33148;SDS011;19506;51.040;3.856;2023-02-21T03:50:52;5.95;;;3.38;;
33148;SDS011;19506;51.040;3.856;2023-02-21T03:53:18;4.80;;;3.00;;
33148;SDS011;19506;51.040;3.856;2023-02-21T03:58:09;4.90;;;2.97;;
33148;SDS011;19506;51.040;3.856;2023-02-21T04:00:35;6.10;;;2.65;;
33148;SDS011;19506;51.040;3.856;2023-02-21T04:05:26;3.72;;;3.10;;
33148;SDS011;19506;51.040;3.856;2023-02-21T04:07:52;4.35;;;3.05;;
33148;SDS011;19506;51.040;3.856;2023-02-21T04:10:17;3.47;;;2.85;;
33148;SDS011;19506;51.040;3.856;2023-02-21T04:12:43;4.20;;;2.92;;
33148;SDS011;19506;51.040;3.856;2023-02-21T04:17:35;4.63;;;3.20;;
33148;SDS011;19506;51.040;3.856;2023-02-21T04:22:26;3.13;;;2.83;;
33148;SDS011;19506;51.040;3.856;2023-02-21T04:24:52;4.55;;;3.38;;
33148;SDS011;19506;51.040;3.856;2023-02-21T04:27:17;4.75;;;3.33;;
33148;SDS011;19506;51.040;3.856;2023-02-21T04:29:43;3.15;;;2.83;;
33148;SDS011;19506;51.040;3.856;2023-02-21T04:34:34;4.60;;;3.10;;
33148;SDS011;19506;51.040;3.856;2023-02-21T04:37:00;4.00;;;3.00;;
33148;SDS011;19506;51.040;3.856;2023-02-21T04:41:51;4.40;;;3.22;;
33148;SDS011;19506;51.040;3.856;2023-02-21T04:44:17;4.18;;;3.00;;
33148;SDS011;19506;51.040;3.856;2023-02-21T04:46:42;3.40;;;2.63;;
33148;SDS011;19506;51.040;3.856;2023-02-21T04:51:36;3.08;;;2.70;;
33148;SDS011;19506;51.040;3.856;2023-02-21T04:56:27;9.70;;;3.35;;
33148;SDS011;19506;51.040;3.856;2023-02-21T04:58:53;4.60;;;3.08;;
33148;SDS011;19506;51.040;3.856;2023-02-21T05:01:19;9.00;;;3.85;;
33148;SDS011;19506;51.040;3.856;2023-02-21T05:03:46;6.63;;;3.45;;
33148;SDS011;19506;51.040;3.856;2023-02-21T05:06:19;6.45;;;4.05;;
33148;SDS011;19506;51.040;3.856;2023-02-21T05:08:46;9.15;;;3.58;;
33148;SDS011;19506;51.040;3.856;2023-02-21T05:13:38;9.45;;;4.85;;
33148;SDS011;19506;51.040;3.856;2023-02-21T05:18:29;5.70;;;3.38;;
33148;SDS011;19506;51.040;3.856;2023-02-21T05:20:55;7.50;;;3.17;;
33148;SDS011;19506;51.040;3.856;2023-02-21T16:04:36;46.58;;;14.70;;
33148;SDS011;19506;51.040;3.856;2023-02-21T16:07:04;49.80;;;14.13;;
33148;SDS011;19506;51.040;3.856;2023-02-21T16:09:32;40.03;;;14.60;;
33148;SDS011;19506;51.040;3.856;2023-02-21T16:14:40;49.60;;;15.18;;
33148;SDS011;19506;51.040;3.856;2023-02-21T16:19:55;44.13;;;14.15;;
33148;SDS011;19506;51.040;3.856;2023-02-21T16:27:53;45.55;;;13.35;;
33148;SDS011;19506;51.040;3.856;2023-02-21T16:30:22;55.45;;;13.25;;
33148;SDS011;19506;51.040;3.856;2023-02-21T16:32:54;43.05;;;15.13;;
33148;SDS011;19506;51.040;3.856;2023-02-21T16:35:29;50.05;;;13.85;;
33148;SDS011;19506;51.040;3.856;2023-02-21T16:37:56;40.13;;;13.80;;
33148;SDS011;19506;51.040;3.856;2023-02-21T16:40:33;40.40;;;13.07;;
33148;SDS011;19506;51.040;3.856;2023-02-21T16:45:26;36.97;;;12.90;;
33148;SDS011;19506;51.040;3.856;2023-02-21T16:47:57;33.95;;;12.75;;
33148;SDS011;19506;51.040;3.856;2023-02-21T16:50:29;33.65;;;13.48;;
33148;SDS011;19506;51.040;3.856;2023-02-21T16:53:00;52.33;;;14.57;;
33148;SDS011;19506;51.040;3.856;2023-02-21T16:55:26;44.17;;;14.38;;
33148;SDS011;19506;51.040;3.856;2023-02-21T16:57:55;74.32;;;19.52;;
33148;SDS011;19506;51.040;3.856;2023-02-21T17:02:56;90.65;;;22.55;;
33148;SDS011;19506;51.040;3.856;2023-02-21T17:05:22;113.00;;;26.48;;
33148;SDS011;19506;51.040;3.856;2023-02-21T17:07:49;108.63;;;27.45;;
33148;SDS011;19506;51.040;3.856;2023-02-21T17:10:17;108.25;;;25.80;;
33148;SDS011;19506;51.040;3.856;2023-02-21T17:12:43;100.68;;;25.95;;
33148;SDS011;19506;51.040;3.856;2023-02-21T17:15:09;96.80;;;24.02;;
33148;SDS011;19506;51.040;3.856;2023-02-21T17:17:35;94.90;;;25.65;;
33148;SDS011;19506;51.040;3.856;2023-02-21T17:20:02;95.97;;;24.70;;
33148;SDS011;19506;51.040;3.856;2023-02-21T17:22:28;90.25;;;23.65;;
33148;SDS011;19506;51.040;3.856;2023-02-21T17:24:54;80.45;;;22.42;;
33148;SDS011;19506;51.040;3.856;2023-02-21T17:27:20;89.97;;;23.88;;
33148;SDS011;19506;51.040;3.856;2023-02-21T17:29:46;90.35;;;22.02;;
33148;SDS011;19506;51.040;3.856;2023-02-21T17:32:12;85.72;;;21.63;;
33148;SDS011;19506;51.040;3.856;2023-02-21T17:34:38;82.95;;;21.92;;
33148;SDS011;19506;51.040;3.856;2023-02-21T17:37:03;86.03;;;22.13;;
33148;SDS011;19506;51.040;3.856;2023-02-21T17:39:29;77.47;;;21.98;;
33148;SDS011;19506;51.040;3.856;2023-02-21T17:41:55;89.18;;;22.42;;
33148;SDS011;19506;51.040;3.856;2023-02-21T17:44:21;72.63;;;22.05;;
33148;SDS011;19506;51.040;3.856;2023-02-21T17:46:49;71.97;;;20.10;;
33148;SDS011;19506;51.040;3.856;2023-02-21T17:49:17;73.55;;;20.20;;
33148;SDS011;19506;51.040;3.856;2023-02-21T17:51:44;76.82;;;21.10;;
33148;SDS011;19506;51.040;3.856;2023-02-21T17:54:11;67.20;;;19.25;;
33148;SDS011;19506;51.040;3.856;2023-02-21T17:56:38;80.03;;;23.05;;
33148;SDS011;19506;51.040;3.856;2023-02-21T17:59:04;61.75;;;19.92;;
33148;SDS011;19506;51.040;3.856;2023-02-21T18:01:29;75.47;;;19.42;;
33148;SDS011;19506;51.040;3.856;2023-02-21T18:03:55;69.45;;;20.15;;
33148;SDS011;19506;51.040;3.856;2023-02-21T18:06:21;60.50;;;18.35;;
33148;SDS011;19506;51.040;3.856;2023-02-21T18:08:47;64.90;;;17.80;;
33148;SDS011;19506;51.040;3.856;2023-02-21T18:11:14;68.88;;;19.05;;
33148;SDS011;19506;51.040;3.856;2023-02-21T18:13:41;57.40;;;17.88;;
33148;SDS011;19506;51.040;3.856;2023-02-21T18:16:07;51.08;;;17.95;;
33148;SDS011;19506;51.040;3.856;2023-02-21T18:18:33;51.60;;;17.65;;
33148;SDS011;19506;51.040;3.856;2023-02-21T18:20:59;67.10;;;20.65;;
33148;SDS011;19506;51.040;3.856;2023-02-21T18:23:27;71.18;;;19.58;;
33148;SDS011;19506;51.040;3.856;2023-02-21T18:25:53;50.40;;;17.27;;
33148;SDS011;19506;51.040;3.856;2023-02-21T18:28:19;42.80;;;16.20;;
33148;SDS011;19506;51.040;3.856;2023-02-21T18:30:45;48.08;;;17.80;;
33148;SDS011;19506;51.040;3.856;2023-02-21T18:33:12;52.47;;;17.15;;
33148;SDS011;19506;51.040;3.856;2023-02-21T18:35:38;63.13;;;17.33;;
33148;SDS011;19506;51.040;3.856;2023-02-21T18:38:04;42.17;;;15.88;;
33148;SDS011;19506;51.040;3.856;2023-02-21T18:40:29;59.17;;;19.35;;
33148;SDS011;19506;51.040;3.856;2023-02-21T18:43:29;53.92;;;16.60;;
33148;SDS011;19506;51.040;3.856;2023-02-21T18:45:55;52.17;;;16.27;;
33148;SDS011;19506;51.040;3.856;2023-02-21T18:48:22;44.92;;;16.00;;
33148;SDS011;19506;51.040;3.856;2023-02-21T18:50:49;63.88;;;30.60;;
33148;SDS011;19506;51.040;3.856;2023-02-21T18:53:16;79.38;;;38.58;;
33148;SDS011;19506;51.040;3.856;2023-02-21T18:55:42;86.13;;;43.10;;
33148;SDS011;19506;51.040;3.856;2023-02-21T18:58:08;91.45;;;45.22;;
33148;SDS011;19506;51.040;3.856;2023-02-21T19:00:34;94.15;;;45.63;;
33148;SDS011;19506;51.040;3.856;2023-02-21T19:03:01;88.85;;;42.75;;
33148;SDS011;19506;51.040;3.856;2023-02-21T19:05:30;76.63;;;42.33;;
33148;SDS011;19506;51.040;3.856;2023-02-21T19:07:56;89.55;;;42.85;;
33148;SDS011;19506;51.040;3.856;2023-02-21T19:10:23;77.57;;;41.30;;
33148;SDS011;19506;51.040;3.856;2023-02-21T19:12:50;78.13;;;39.15;;
33148;SDS011;19506;51.040;3.856;2023-02-21T19:15:17;74.05;;;38.88;;
33148;SDS011;19506;51.040;3.856;2023-02-21T19:17:45;74.53;;;37.78;;
33148;SDS011;19506;51.040;3.856;2023-02-21T19:20:12;73.22;;;36.92;;
33148;SDS011;19506;51.040;3.856;2023-02-21T19:22:39;80.38;;;37.95;;
33148;SDS011;19506;51.040;3.856;2023-02-21T19:25:05;72.13;;;36.10;;
33148;SDS011;19506;51.040;3.856;2023-02-21T19:27:31;68.75;;;32.65;;
33148;SDS011;19506;51.040;3.856;2023-02-21T19:29:57;75.47;;;32.42;;
33148;SDS011;19506;51.040;3.856;2023-02-21T19:32:23;62.53;;;31.17;;
33148;SDS011;19506;51.040;3.856;2023-02-21T19:34:49;71.50;;;30.25;;
33148;SDS011;19506;51.040;3.856;2023-02-21T19:37:15;55.50;;;27.60;;
33148;SDS011;19506;51.040;3.856;2023-02-21T19:39:41;55.55;;;29.45;;
33148;SDS011;19506;51.040;3.856;2023-02-21T19:42:07;64.28;;;26.83;;
33148;SDS011;19506;51.040;3.856;2023-02-21T19:44:33;59.25;;;27.77;;
33148;SDS011;19506;51.040;3.856;2023-02-21T19:46:59;54.80;;;25.23;;
33148;SDS011;19506;51.040;3.856;2023-02-21T19:49:25;54.53;;;26.77;;
33148;SDS011;19506;51.040;3.856;2023-02-21T19:51:51;56.50;;;26.15;;
33148;SDS011;19506;51.040;3.856;2023-02-21T19:54:19;52.05;;;25.83;;
33148;SDS011;19506;51.040;3.856;2023-02-21T19:56:48;44.40;;;23.13;;
33148;SDS011;19506;51.040;3.856;2023-02-21T19:59:14;49.22;;;22.90;;
33148;SDS011;19506;51.040;3.856;2023-02-21T20:01:40;47.65;;;22.65;;
33148;SDS011;19506;51.040;3.856;2023-02-21T20:04:06;50.55;;;23.08;;
33148;SDS011;19506;51.040;3.856;2023-02-21T20:06:32;51.05;;;23.40;;
33148;SDS011;19506;51.040;3.856;2023-02-21T20:09:00;46.58;;;24.20;;
33148;SDS011;19506;51.040;3.856;2023-02-21T20:11:27;43.08;;;22.10;;
33148;SDS011;19506;51.040;3.856;2023-02-21T20:13:53;42.17;;;21.02;;
33148;SDS011;19506;51.040;3.856;2023-02-21T20:16:19;37.22;;;19.60;;
33148;SDS011;19506;51.040;3.856;2023-02-21T20:18:46;49.67;;;21.58;;
33148;SDS011;19506;51.040;3.856;2023-02-21T20:21:26;52.30;;;21.08;;
33148;SDS011;19506;51.040;3.856;2023-02-21T20:23:54;42.28;;;20.00;;
33148;SDS011;19506;51.040;3.856;2023-02-21T20:26:22;36.85;;;18.95;;
33148;SDS011;19506;51.040;3.856;2023-02-21T20:28:51;40.28;;;20.27;;
33148;SDS011;19506;51.040;3.856;2023-02-21T20:31:18;38.22;;;18.73;;
33148;SDS011;19506;51.040;3.856;2023-02-21T20:33:46;37.78;;;18.38;;
33148;SDS011;19506;51.040;3.856;2023-02-21T20:36:12;38.22;;;17.95;;
33148;SDS011;19506;51.040;3.856;2023-02-21T20:38:38;36.10;;;18.20;;
33148;SDS011;19506;51.040;3.856;2023-02-21T20:41:08;42.85;;;18.13;;
33148;SDS011;19506;51.040;3.856;2023-02-21T20:43:35;33.63;;;17.67;;
33148;SDS011;19506;51.040;3.856;2023-02-21T20:46:01;42.22;;;18.23;;
33148;SDS011;19506;51.040;3.856;2023-02-21T20:48:28;33.60;;;18.20;;
33148;SDS011;19506;51.040;3.856;2023-02-21T20:50:56;36.42;;;16.15;;
33148;SDS011;19506;51.040;3.856;2023-02-21T20:53:24;31.20;;;16.60;;
33148;SDS011;19506;51.040;3.856;2023-02-21T20:55:51;41.25;;;16.48;;
33148;SDS011;19506;51.040;3.856;2023-02-21T20:58:18;35.67;;;16.77;;
33148;SDS011;19506;51.040;3.856;2023-02-21T21:00:45;29.45;;;15.80;;
33148;SDS011;19506;51.040;3.856;2023-02-21T21:03:13;32.65;;;15.90;;
33148;SDS011;19506;51.040;3.856;2023-02-21T21:05:41;44.42;;;16.25;;
33148;SDS011;19506;51.040;3.856;2023-02-21T21:08:12;29.80;;;15.50;;
33148;SDS011;19506;51.040;3.856;2023-02-21T21:10:38;33.75;;;16.25;;
33148;SDS011;19506;51.040;3.856;2023-02-21T21:13:04;27.85;;;14.95;;
33148;SDS011;19506;51.040;3.856;2023-02-21T21:15:30;29.90;;;15.93;;
33148;SDS011;19506;51.040;3.856;2023-02-21T21:17:56;28.17;;;14.55;;
33148;SDS011;19506;51.040;3.856;2023-02-21T21:20:22;35.40;;;16.67;;
33148;SDS011;19506;51.040;3.856;2023-02-21T21:22:50;29.38;;;15.40;;
33148;SDS011;19506;51.040;3.856;2023-02-21T21:25:16;37.53;;;16.58;;
33148;SDS011;19506;51.040;3.856;2023-02-21T21:27:42;36.83;;;15.50;;
33148;SDS011;19506;51.040;3.856;2023-02-21T21:30:09;29.25;;;14.68;;
33148;SDS011;19506;51.040;3.856;2023-02-21T21:32:42;32.72;;;15.27;;
33148;SDS011;19506;51.040;3.856;2023-02-21T21:35:08;31.27;;;15.63;;
33148;SDS011;19506;51.040;3.856;2023-02-21T21:37:34;26.58;;;15.18;;
33148;SDS011;19506;51.040;3.856;2023-02-21T21:40:01;27.73;;;14.50;;
33148;SDS011;19506;51.040;3.856;2023-02-21T21:42:43;26.85;;;15.65;;
33148;SDS011;19506;51.040;3.856;2023-02-21T21:45:16;26.45;;;14.13;;
33148;SDS011;19506;51.040;3.856;2023-02-21T21:47:53;27.80;;;15.00;;
33148;SDS011;19506;51.040;3.856;2023-02-21T21:50:23;28.65;;;14.27;;
33148;SDS011;19506;51.040;3.856;2023-02-21T21:52:53;33.03;;;14.65;;
33148;SDS011;19506;51.040;3.856;2023-02-21T21:55:23;26.33;;;14.70;;
33148;SDS011;19506;51.040;3.856;2023-02-21T21:57:50;32.33;;;14.55;;
33148;SDS011;19506;51.040;3.856;2023-02-21T22:00:21;29.58;;;14.10;;
33148;SDS011;19506;51.040;3.856;2023-02-21T22:02:50;24.77;;;14.45;;
33148;SDS011;19506;51.040;3.856;2023-02-21T22:05:20;22.70;;;13.82;;
33148;SDS011;19506;51.040;3.856;2023-02-21T22:07:49;25.90;;;14.68;;
33148;SDS011;19506;51.040;3.856;2023-02-21T22:10:16;27.83;;;15.05;;
33148;SDS011;19506;51.040;3.856;2023-02-21T22:12:44;27.83;;;14.70;;
33148;SDS011;19506;51.040;3.856;2023-02-21T22:15:13;31.83;;;14.52;;
33148;SDS011;19506;51.040;3.856;2023-02-21T22:17:42;27.90;;;14.40;;
33148;SDS011;19506;51.040;3.856;2023-02-21T22:20:08;30.77;;;14.32;;
33148;SDS011;19506;51.040;3.856;2023-02-21T22:22:48;25.05;;;13.25;;
33148;SDS011;19506;51.040;3.856;2023-02-21T22:25:16;25.25;;;14.35;;
33148;SDS011;19506;51.040;3.856;2023-02-21T22:27:44;21.85;;;13.23;;
33148;SDS011;19506;51.040;3.856;2023-02-21T22:30:10;23.70;;;14.65;;
33148;SDS011;19506;51.040;3.856;2023-02-21T22:32:39;24.88;;;13.40;;
33148;SDS011;19506;51.040;3.856;2023-02-21T22:35:06;24.33;;;12.55;;
33148;SDS011;19506;51.040;3.856;2023-02-21T22:40:15;25.67;;;13.43;;
33148;SDS011;19506;51.040;3.856;2023-02-21T22:42:48;24.45;;;13.15;;
33148;SDS011;19506;51.040;3.856;2023-02-21T22:47:51;23.70;;;12.38;;
33148;SDS011;19506;51.040;3.856;2023-02-21T22:50:20;22.00;;;12.80;;
33148;SDS011;19506;51.040;3.856;2023-02-21T22:52:57;19.85;;;11.68;;
33148;SDS011;19506;51.040;3.856;2023-02-21T22:55:25;24.75;;;12.05;;
33148;SDS011;19506;51.040;3.856;2023-02-21T22:57:54;20.38;;;12.20;;
33148;SDS011;19506;51.040;3.856;2023-02-21T23:00:23;26.60;;;12.90;;
33148;SDS011;19506;51.040;3.856;2023-02-21T23:03:00;37.83;;;13.20;;
33148;SDS011;19506;51.040;3.856;2023-02-21T23:05:37;23.95;;;11.85;;
33148;SDS011;19506;51.040;3.856;2023-02-21T23:08:03;23.77;;;12.65;;
33148;SDS011;19506;51.040;3.856;2023-02-21T23:10:30;20.15;;;11.57;;
33148;SDS011;19506;51.040;3.856;2023-02-21T23:12:58;24.17;;;12.20;;
33148;SDS011;19506;51.040;3.856;2023-02-21T23:15:25;23.92;;;12.32;;
33148;SDS011;19506;51.040;3.856;2023-02-21T23:17:51;23.58;;;12.55;;
33148;SDS011;19506;51.040;3.856;2023-02-21T23:20:18;23.33;;;11.90;;
33148;SDS011;19506;51.040;3.856;2023-02-21T23:22:54;20.80;;;11.48;;
33148;SDS011;19506;51.040;3.856;2023-02-21T23:25:25;22.05;;;12.18;;
33148;SDS011;19506;51.040;3.856;2023-02-21T23:27:59;32.08;;;11.95;;
33148;SDS011;19506;51.040;3.856;2023-02-21T23:30:29;23.15;;;11.82;;
33148;SDS011;19506;51.040;3.856;2023-02-21T23:33:04;23.63;;;12.85;;
33148;SDS011;19506;51.040;3.856;2023-02-21T23:35:38;23.98;;;11.40;;
33148;SDS011;19506;51.040;3.856;2023-02-21T23:38:08;21.88;;;12.55;;
33148;SDS011;19506;51.040;3.856;2023-02-21T23:40:39;20.40;;;12.38;;
33148;SDS011;19506;51.040;3.856;2023-02-21T23:43:10;23.08;;;11.90;;
33148;SDS011;19506;51.040;3.856;2023-02-21T23:45:37;23.02;;;11.45;;
33148;SDS011;19506;51.040;3.856;2023-02-21T23:48:04;20.30;;;11.95;;
33148;SDS011;19506;51.040;3.856;2023-02-21T23:50:39;22.33;;;11.75;;
33148;SDS011;19506;51.040;3.856;2023-02-21T23:53:11;29.83;;;12.25;;
33148;SDS011;19506;51.040;3.856;2023-02-21T23:55:39;25.60;;;12.52;;
33148;SDS011;19506;51.040;3.856;2023-02-21T23:58:05;27.00;;;11.77;;
